sensor_id;sensor_type;location;lat;lon;timestamp;pressure;altitude;pressure_sealevel;temperature;humidity
3917;BME280;1973;50.518;7.318;2023-04-28T00:02:23;100653.53;;;13.30;97.97
3917;BME280;1973;50.518;7.318;2023-04-28T00:04:49;100649.06;;;13.29;98.97
3917;BME280;1973;50.518;7.318;2023-04-28T00:07:17;100643.75;;;13.27;100.00
3917;BME280;1973;50.518;7.318;2023-04-28T00:09:43;100649.28;;;13.27;100.00
3917;BME280;1973;50.518;7.318;2023-04-28T00:12:10;100647.38;;;13.28;100.00
3917;BME280;1973;50.518;7.318;2023-04-28T00:14:36;100646.31;;;13.29;100.00
3917;BME280;1973;50.518;7.318;2023-04-28T00:17:03;100648.44;;;13.27;100.00
3917;BME280;1973;50.518;7.318;2023-04-28T00:19:30;100653.97;;;13.27;100.00
3917;BME280;1973;50.518;7.318;2023-04-28T00:21:56;100648.44;;;13.27;100.00
3917;BME280;1973;50.518;7.318;2023-04-28T00:24:22;100642.09;;;13.26;100.00
3917;BME280;1973;50.518;7.318;2023-04-28T00:26:49;100636.56;;;13.26;100.00
3917;BME280;1973;50.518;7.318;2023-04-28T00:29:15;100634.03;;;13.25;100.00
3917;BME280;1973;50.518;7.318;2023-04-28T00:31:43;100630.19;;;13.26;100.00
3917;BME280;1973;50.518;7.318;2023-04-28T00:34:09;100625.16;;;13.23;100.00
3917;BME280;1973;50.518;7.318;2023-04-28T00:36:39;100619.63;;;13.23;100.00
3917;BME280;1973;50.518;7.318;2023-04-28T00:39:06;100622.59;;;13.21;100.00
3917;BME280;1973;50.518;7.318;2023-04-28T00:41:33;100618.41;;;13.19;100.00
3917;BME280;1973;50.518;7.318;2023-04-28T00:44:00;100610.56;;;13.15;100.00
3917;BME280;1973;50.518;7.318;2023-04-28T00:46:29;100595.31;;;13.13;100.00
3917;BME280;1973;50.518;7.318;2023-04-28T00:48:56;100594.06;;;13.09;100.00
3917;BME280;1973;50.518;7.318;2023-04-28T00:51:23;100595.84;;;13.03;100.00
3917;BME280;1973;50.518;7.318;2023-04-28T00:53:50;100595.72;;;12.98;100.00
3917;BME280;1973;50.518;7.318;2023-04-28T00:56:16;100585.63;;;12.92;100.00
3917;BME280;1973;50.518;7.318;2023-04-28T00:58:43;100588.25;;;12.87;100.00
3917;BME280;1973;50.518;7.318;2023-04-28T01:01:09;100589.19;;;12.81;100.00
3917;BME280;1973;50.518;7.318;2023-04-28T01:03:38;100593.97;;;12.74;100.00
3917;BME280;1973;50.518;7.318;2023-04-28T01:06:07;100588.53;;;12.67;100.00
3917;BME280;1973;50.518;7.318;2023-04-28T01:08:35;100589.25;;;12.63;100.00
3917;BME280;1973;50.518;7.318;2023-04-28T01:11:01;100595.00;;;12.61;100.00
3917;BME280;1973;50.518;7.318;2023-04-28T01:13:28;100579.13;;;12.57;100.00
3917;BME280;1973;50.518;7.318;2023-04-28T01:15:55;100569.75;;;12.58;100.00
3917;BME280;1973;50.518;7.318;2023-04-28T01:18:22;100568.69;;;12.59;100.00
3917;BME280;1973;50.518;7.318;2023-04-28T01:20:49;100564.47;;;12.56;100.00
3917;BME280;1973;50.518;7.318;2023-04-28T01:23:16;100567.47;;;12.55;100.00
3917;BME280;1973;50.518;7.318;2023-04-28T01:25:43;100572.38;;;12.53;100.00
3917;BME280;1973;50.518;7.318;2023-04-28T01:28:10;100564.56;;;12.50;100.00
3917;BME280;1973;50.518;7.318;2023-04-28T01:30:36;100563.97;;;12.48;100.00
3917;BME280;1973;50.518;7.318;2023-04-28T01:33:03;100561.22;;;12.48;100.00
3917;BME280;1973;50.518;7.318;2023-04-28T01:35:29;100542.09;;;12.46;100.00
3917;BME280;1973;50.518;7.318;2023-04-28T01:37:56;100547.88;;;12.45;100.00
3917;BME280;1973;50.518;7.318;2023-04-28T01:40:23;100539.59;;;12.45;100.00
3917;BME280;1973;50.518;7.318;2023-04-28T01:42:50;100537.91;;;12.44;100.00
3917;BME280;1973;50.518;7.318;2023-04-28T01:45:16;100544.28;;;12.44;100.00
3917;BME280;1973;50.518;7.318;2023-04-28T01:47:42;100541.50;;;12.44;100.00
3917;BME280;1973;50.518;7.318;2023-04-28T01:50:09;100542.34;;;12.45;100.00
3917;BME280;1973;50.518;7.318;2023-04-28T01:52:36;100538.97;;;12.43;100.00
3917;BME280;1973;50.518;7.318;2023-04-28T01:55:03;100533.44;;;12.43;100.00
3917;BME280;1973;50.518;7.318;2023-04-28T01:57:29;100547.50;;;12.41;100.00
3917;BME280;1973;50.518;7.318;2023-04-28T01:59:56;100547.72;;;12.40;100.00
3917;BME280;1973;50.518;7.318;2023-04-28T02:02:24;100542.44;;;12.38;100.00
3917;BME280;1973;50.518;7.318;2023-04-28T02:04:50;100538.22;;;12.36;100.00
3917;BME280;1973;50.518;7.318;2023-04-28T02:07:17;100540.38;;;12.34;100.00
3917;BME280;1973;50.518;7.318;2023-04-28T02:09:43;100546.13;;;12.32;100.00
3917;BME280;1973;50.518;7.318;2023-04-28T02:12:10;100545.28;;;12.32;100.00
3917;BME280;1973;50.518;7.318;2023-04-28T02:14:36;100534.25;;;12.32;100.00
3917;BME280;1973;50.518;7.318;2023-04-28T02:17:03;100549.47;;;12.34;100.00
3917;BME280;1973;50.518;7.318;2023-04-28T02:19:30;100540.97;;;12.36;100.00
3917;BME280;1973;50.518;7.318;2023-04-28T02:21:57;100548.19;;;12.37;100.00
3917;BME280;1973;50.518;7.318;2023-04-28T02:24:23;100541.59;;;12.38;100.00
3917;BME280;1973;50.518;7.318;2023-04-28T02:26:50;100530.31;;;12.39;100.00
3917;BME280;1973;50.518;7.318;2023-04-28T02:29:16;100527.81;;;12.38;100.00
3917;BME280;1973;50.518;7.318;2023-04-28T02:31:42;100529.94;;;12.36;100.00
3917;BME280;1973;50.518;7.318;2023-04-28T02:34:09;100519.97;;;12.35;100.00
3917;BME280;1973;50.518;7.318;2023-04-28T02:36:35;100520.22;;;12.33;100.00
3917;BME280;1973;50.518;7.318;2023-04-28T02:39:02;100517.47;;;12.33;100.00
3917;BME280;1973;50.518;7.318;2023-04-28T02:41:29;100511.09;;;12.33;100.00
3917;BME280;1973;50.518;7.318;2023-04-28T02:43:56;100497.88;;;12.35;100.00
3917;BME280;1973;50.518;7.318;2023-04-28T02:46:22;100497.44;;;12.38;100.00
3917;BME280;1973;50.518;7.318;2023-04-28T02:48:49;100502.72;;;12.39;100.00
3917;BME280;1973;50.518;7.318;2023-04-28T02:51:15;100500.31;;;12.43;100.00
3917;BME280;1973;50.518;7.318;2023-04-28T02:53:42;100509.44;;;12.43;100.00
3917;BME280;1973;50.518;7.318;2023-04-28T02:56:08;100502.59;;;12.46;100.00
3917;BME280;1973;50.518;7.318;2023-04-28T02:58:35;100493.25;;;12.47;100.00
3917;BME280;1973;50.518;7.318;2023-04-28T03:01:01;100491.13;;;12.49;100.00
3917;BME280;1973;50.518;7.318;2023-04-28T03:03:28;100487.25;;;12.50;100.00
3917;BME280;1973;50.518;7.318;2023-04-28T03:05:54;100477.91;;;12.51;100.00
3917;BME280;1973;50.518;7.318;2023-04-28T03:08:22;100475.72;;;12.53;100.00
3917;BME280;1973;50.518;7.318;2023-04-28T03:10:48;100481.72;;;12.50;100.00
3917;BME280;1973;50.518;7.318;2023-04-28T03:13:15;100478.38;;;12.48;100.00
3917;BME280;1973;50.518;7.318;2023-04-28T03:15:41;100488.56;;;12.47;100.00
3917;BME280;1973;50.518;7.318;2023-04-28T03:18:08;100472.84;;;12.48;100.00
3917;BME280;1973;50.518;7.318;2023-04-28T03:20:34;100465.16;;;12.50;100.00
3917;BME280;1973;50.518;7.318;2023-04-28T03:23:01;100466.38;;;12.54;100.00
3917;BME280;1973;50.518;7.318;2023-04-28T03:25:28;100465.06;;;12.56;100.00
3917;BME280;1973;50.518;7.318;2023-04-28T03:27:55;100461.84;;;12.59;100.00
3917;BME280;1973;50.518;7.318;2023-04-28T03:30:21;100463.28;;;12.62;100.00
3917;BME280;1973;50.518;7.318;2023-04-28T03:32:48;100464.97;;;12.63;100.00
3917;BME280;1973;50.518;7.318;2023-04-28T03:35:14;100455.56;;;12.64;100.00
3917;BME280;1973;50.518;7.318;2023-04-28T03:37:41;100448.97;;;12.65;100.00
3917;BME280;1973;50.518;7.318;2023-04-28T03:40:08;100448.50;;;12.68;100.00
3917;BME280;1973;50.518;7.318;2023-04-28T03:42:34;100441.91;;;12.69;100.00
3917;BME280;1973;50.518;7.318;2023-04-28T03:45:01;100444.66;;;12.69;100.00
3917;BME280;1973;50.518;7.318;2023-04-28T03:47:27;100439.16;;;12.69;100.00
3917;BME280;1973;50.518;7.318;2023-04-28T03:49:54;100444.19;;;12.72;100.00
3917;BME280;1973;50.518;7.318;2023-04-28T03:52:20;100445.28;;;12.71;100.00
3917;BME280;1973;50.518;7.318;2023-04-28T03:54:47;100437.00;;;12.71;100.00
3917;BME280;1973;50.518;7.318;2023-04-28T03:57:13;100446.94;;;12.72;100.00
3917;BME280;1973;50.518;7.318;2023-04-28T03:59:39;100432.91;;;12.74;100.00
3917;BME280;1973;50.518;7.318;2023-04-28T04:02:06;100426.06;;;12.76;100.00
3917;BME280;1973;50.518;7.318;2023-04-28T04:04:32;100434.97;;;12.78;100.00
3917;BME280;1973;50.518;7.318;2023-04-28T04:07:00;100422.81;;;12.79;100.00
3917;BME280;1973;50.518;7.318;2023-04-28T04:09:26;100435.31;;;12.82;100.00
3917;BME280;1973;50.518;7.318;2023-04-28T04:11:53;100426.19;;;12.81;100.00
3917;BME280;1973;50.518;7.318;2023-04-28T04:14:19;100426.19;;;12.81;100.00
3917;BME280;1973;50.518;7.318;2023-04-28T04:16:46;100428.59;;;12.78;100.00
3917;BME280;1973;50.518;7.318;2023-04-28T04:19:13;100430.25;;;12.79;100.00
3917;BME280;1973;50.518;7.318;2023-04-28T04:21:40;100427.03;;;12.82;100.00
3917;BME280;1973;50.518;7.318;2023-04-28T04:24:06;100424.28;;;12.82;100.00
3917;BME280;1973;50.518;7.318;2023-04-28T04:26:33;100420.06;;;12.79;100.00
3917;BME280;1973;50.518;7.318;2023-04-28T04:28:59;100415.63;;;12.78;100.00
3917;BME280;1973;50.518;7.318;2023-04-28T04:31:26;100416.34;;;12.74;100.00
3917;BME280;1973;50.518;7.318;2023-04-28T04:33:53;100408.28;;;12.72;100.00
3917;BME280;1973;50.518;7.318;2023-04-28T04:36:20;100405.78;;;12.71;100.00
3917;BME280;1973;50.518;7.318;2023-04-28T04:38:46;100416.81;;;12.71;100.00
3917;BME280;1973;50.518;7.318;2023-04-28T04:41:13;100410.19;;;12.72;100.00
3917;BME280;1973;50.518;7.318;2023-04-28T04:43:39;100409.75;;;12.75;100.00
3917;BME280;1973;50.518;7.318;2023-04-28T04:46:06;100415.00;;;12.76;100.00
3917;BME280;1973;50.518;7.318;2023-04-28T04:48:32;100412.25;;;12.76;100.00
3917;BME280;1973;50.518;7.318;2023-04-28T04:50:59;100424.38;;;12.75;100.00
3917;BME280;1973;50.518;7.318;2023-04-28T04:53:26;100413.56;;;12.74;100.00
3917;BME280;1973;50.518;7.318;2023-04-28T04:55:52;100423.19;;;12.71;100.00
3917;BME280;1973;50.518;7.318;2023-04-28T04:58:19;100407.44;;;12.72;100.00
3917;BME280;1973;50.518;7.318;2023-04-28T05:00:46;100420.03;;;12.67;100.00
3917;BME280;1973;50.518;7.318;2023-04-28T05:03:12;100415.38;;;12.68;100.00
3917;BME280;1973;50.518;7.318;2023-04-28T05:05:39;100425.19;;;12.64;100.00
3917;BME280;1973;50.518;7.318;2023-04-28T05:08:06;100425.69;;;12.61;100.00
3917;BME280;1973;50.518;7.318;2023-04-28T05:10:32;100419.56;;;12.59;100.00
3917;BME280;1973;50.518;7.318;2023-04-28T05:12:59;100424.47;;;12.57;100.00
3917;BME280;1973;50.518;7.318;2023-04-28T05:15:25;100428.34;;;12.56;100.00
3917;BME280;1973;50.518;7.318;2023-04-28T05:17:52;100436.63;;;12.56;100.00
3917;BME280;1973;50.518;7.318;2023-04-28T05:20:19;100442.13;;;12.56;100.00
3917;BME280;1973;50.518;7.318;2023-04-28T05:22:45;100442.97;;;12.56;100.00
3917;BME280;1973;50.518;7.318;2023-04-28T05:25:12;100446.81;;;12.55;100.00
3917;BME280;1973;50.518;7.318;2023-04-28T05:27:38;100448.38;;;12.51;100.00
3917;BME280;1973;50.518;7.318;2023-04-28T05:30:07;100454.97;;;12.50;100.00
3917;BME280;1973;50.518;7.318;2023-04-28T05:32:34;100440.31;;;12.50;100.00
3917;BME280;1973;50.518;7.318;2023-04-28T05:35:02;100439.47;;;12.49;100.00
3917;BME280;1973;50.518;7.318;2023-04-28T05:37:28;100439.25;;;12.51;100.00
3917;BME280;1973;50.518;7.318;2023-04-28T05:39:55;100433.72;;;12.51;100.00
3917;BME280;1973;50.518;7.318;2023-04-28T05:42:21;100436.25;;;12.52;100.00
3917;BME280;1973;50.518;7.318;2023-04-28T05:44:47;100426.88;;;12.53;100.00
3917;BME280;1973;50.518;7.318;2023-04-28T05:47:14;100433.00;;;12.55;100.00
3917;BME280;1973;50.518;7.318;2023-04-28T05:49:40;100428.34;;;12.56;100.00
3917;BME280;1973;50.518;7.318;2023-04-28T05:52:07;100430.63;;;12.59;100.00
3917;BME280;1973;50.518;7.318;2023-04-28T05:54:33;100424.72;;;12.55;100.00
3917;BME280;1973;50.518;7.318;2023-04-28T05:57:00;100426.66;;;12.55;100.00
3917;BME280;1973;50.518;7.318;2023-04-28T05:59:27;100432.75;;;12.57;100.00
3917;BME280;1973;50.518;7.318;2023-04-28T06:01:55;100432.31;;;12.60;100.00
3917;BME280;1973;50.518;7.318;2023-04-28T06:04:22;100435.28;;;12.58;100.00
3917;BME280;1973;50.518;7.318;2023-04-28T06:06:49;100437.81;;;12.60;100.00
3917;BME280;1973;50.518;7.318;2023-04-28T06:09:16;100438.19;;;12.63;100.00
3917;BME280;1973;50.518;7.318;2023-04-28T06:11:42;100424.97;;;12.65;100.00
3917;BME280;1973;50.518;7.318;2023-04-28T06:14:09;100418.13;;;12.68;100.00
3917;BME280;1973;50.518;7.318;2023-04-28T06:16:35;100423.41;;;12.69;100.00
3917;BME280;1973;50.518;7.318;2023-04-28T06:19:02;100433.75;;;12.74;100.00
3917;BME280;1973;50.518;7.318;2023-04-28T06:21:29;100422.44;;;12.76;100.00
3917;BME280;1973;50.518;7.318;2023-04-28T06:23:57;100400.13;;;12.77;100.00
3917;BME280;1973;50.518;7.318;2023-04-28T06:26:23;100394.59;;;12.77;100.00
3917;BME280;1973;50.518;7.318;2023-04-28T06:28:50;100407.78;;;12.75;100.00
3917;BME280;1973;50.518;7.318;2023-04-28T06:31:17;100416.69;;;12.77;100.00
3917;BME280;1973;50.518;7.318;2023-04-28T06:33:43;100404.81;;;12.77;100.00
3917;BME280;1973;50.518;7.318;2023-04-28T06:36:10;100400.97;;;12.78;100.00
3917;BME280;1973;50.518;7.318;2023-04-28T06:38:39;100403.97;;;12.76;100.00
3917;BME280;1973;50.518;7.318;2023-04-28T06:41:08;100401.34;;;12.81;100.00
3917;BME280;1973;50.518;7.318;2023-04-28T06:43:35;100426.91;;;12.88;100.00
3917;BME280;1973;50.518;7.318;2023-04-28T06:46:02;100418.50;;;12.95;100.00
3917;BME280;1973;50.518;7.318;2023-04-28T06:48:29;100418.16;;;13.03;100.00
3917;BME280;1973;50.518;7.318;2023-04-28T06:50:55;100421.66;;;13.10;100.00
3917;BME280;1973;50.518;7.318;2023-04-28T06:53:22;100414.91;;;13.18;100.00
3917;BME280;1973;50.518;7.318;2023-04-28T06:55:48;100417.69;;;13.29;100.00
3917;BME280;1973;50.518;7.318;2023-04-28T06:58:14;100424.25;;;13.40;100.00
3917;BME280;1973;50.518;7.318;2023-04-28T07:00:41;100431.47;;;13.41;100.00
3917;BME280;1973;50.518;7.318;2023-04-28T07:03:08;100430.63;;;13.40;100.00
3917;BME280;1973;50.518;7.318;2023-04-28T07:05:34;100430.38;;;13.42;100.00
3917;BME280;1973;50.518;7.318;2023-04-28T07:08:02;100433.50;;;13.45;100.00
3917;BME280;1973;50.518;7.318;2023-04-28T07:10:29;100422.91;;;13.54;100.00
3917;BME280;1973;50.518;7.318;2023-04-28T07:12:55;100420.59;;;13.62;100.00
3917;BME280;1973;50.518;7.318;2023-04-28T07:15:22;100420.97;;;13.66;100.00
3917;BME280;1973;50.518;7.318;2023-04-28T07:17:49;100419.97;;;13.72;100.00
3917;BME280;1973;50.518;7.318;2023-04-28T07:20:16;100423.69;;;13.78;100.00
3917;BME280;1973;50.518;7.318;2023-04-28T07:22:43;100429.41;;;13.88;100.00
3917;BME280;1973;50.518;7.318;2023-04-28T07:25:09;100425.22;;;13.85;100.00
3917;BME280;1973;50.518;7.318;2023-04-28T07:27:36;100429.75;;;13.91;100.00
3917;BME280;1973;50.518;7.318;2023-04-28T07:30:03;100430.25;;;13.88;100.00
3917;BME280;1973;50.518;7.318;2023-04-28T07:32:50;100432.66;;;13.96;100.00
3917;BME280;1973;50.518;7.318;2023-04-28T07:35:17;100438.03;;;14.03;100.00
3917;BME280;1973;50.518;7.318;2023-04-28T07:37:43;100441.38;;;14.05;100.00
3917;BME280;1973;50.518;7.318;2023-04-28T07:40:10;100443.56;;;14.03;100.00
3917;BME280;1973;50.518;7.318;2023-04-28T07:42:36;100437.34;;;13.96;100.00
3917;BME280;1973;50.518;7.318;2023-04-28T07:45:03;100437.69;;;13.99;100.00
3917;BME280;1973;50.518;7.318;2023-04-28T07:47:30;100434.81;;;13.94;100.00
3917;BME280;1973;50.518;7.318;2023-04-28T07:49:57;100438.19;;;13.96;100.00
3917;BME280;1973;50.518;7.318;2023-04-28T07:52:26;100433.34;;;14.03;100.00
3917;BME280;1973;50.518;7.318;2023-04-28T07:54:52;100437.38;;;14.12;100.00
3917;BME280;1973;50.518;7.318;2023-04-28T07:57:19;100432.44;;;14.14;100.00
3917;BME280;1973;50.518;7.318;2023-04-28T07:59:45;100445.09;;;14.10;100.00
3917;BME280;1973;50.518;7.318;2023-04-28T08:02:12;100442.69;;;14.14;100.00
3917;BME280;1973;50.518;7.318;2023-04-28T08:04:39;100440.34;;;14.23;100.00
3917;BME280;1973;50.518;7.318;2023-04-28T08:07:07;100430.19;;;14.28;100.00
3917;BME280;1973;50.518;7.318;2023-04-28T08:09:34;100430.06;;;14.35;100.00
3917;BME280;1973;50.518;7.318;2023-04-28T08:12:01;100427.97;;;14.42;100.00
3917;BME280;1973;50.518;7.318;2023-04-28T08:14:27;100424.22;;;14.48;100.00
3917;BME280;1973;50.518;7.318;2023-04-28T08:16:53;100422.19;;;14.60;100.00
3917;BME280;1973;50.518;7.318;2023-04-28T08:19:20;100419.66;;;14.42;100.00
3917;BME280;1973;50.518;7.318;2023-04-28T08:21:46;100426.72;;;14.49;100.00
3917;BME280;1973;50.518;7.318;2023-04-28T08:24:13;100431.75;;;14.52;100.00
3917;BME280;1973;50.518;7.318;2023-04-28T08:26:40;100435.06;;;14.66;100.00
3917;BME280;1973;50.518;7.318;2023-04-28T08:29:06;100426.41;;;14.79;100.00
3917;BME280;1973;50.518;7.318;2023-04-28T08:31:33;100425.56;;;14.95;100.00
3917;BME280;1973;50.518;7.318;2023-04-28T08:33:59;100437.03;;;15.21;100.00
3917;BME280;1973;50.518;7.318;2023-04-28T08:36:26;100443.53;;;15.48;100.00
3917;BME280;1973;50.518;7.318;2023-04-28T08:38:57;100448.22;;;15.26;100.00
3917;BME280;1973;50.518;7.318;2023-04-28T08:41:24;100446.06;;;15.11;100.00
3917;BME280;1973;50.518;7.318;2023-04-28T08:43:55;100437.56;;;15.18;100.00
3917;BME280;1973;50.518;7.318;2023-04-28T08:46:24;100440.47;;;15.28;100.00
3917;BME280;1973;50.518;7.318;2023-04-28T08:48:59;100441.13;;;15.35;100.00
3917;BME280;1973;50.518;7.318;2023-04-28T08:51:37;100451.22;;;15.24;100.00
3917;BME280;1973;50.518;7.318;2023-04-28T08:54:09;100450.38;;;15.24;100.00
3917;BME280;1973;50.518;7.318;2023-04-28T08:56:51;100439.94;;;15.31;100.00
3917;BME280;1973;50.518;7.318;2023-04-28T08:59:18;100442.09;;;15.45;100.00
3917;BME280;1973;50.518;7.318;2023-04-28T09:01:47;100443.94;;;15.56;100.00
3917;BME280;1973;50.518;7.318;2023-04-28T09:04:18;100443.75;;;15.63;100.00
3917;BME280;1973;50.518;7.318;2023-04-28T09:06:45;100443.44;;;15.59;100.00
3917;BME280;1973;50.518;7.318;2023-04-28T09:11:58;100426.78;;;15.81;100.00
3917;BME280;1973;50.518;7.318;2023-04-28T09:14:26;100420.28;;;15.92;100.00
3917;BME280;1973;50.518;7.318;2023-04-28T09:16:53;100423.59;;;15.94;100.00
3917;BME280;1973;50.518;7.318;2023-04-28T09:19:20;100427.16;;;15.90;100.00
3917;BME280;1973;50.518;7.318;2023-04-28T09:21:51;100434.53;;;15.79;100.00
3917;BME280;1973;50.518;7.318;2023-04-28T09:24:44;100433.81;;;15.67;100.00
3917;BME280;1973;50.518;7.318;2023-04-28T09:27:12;100426.84;;;15.65;100.00
3917;BME280;1973;50.518;7.318;2023-04-28T09:29:51;100451.81;;;15.65;100.00
3917;BME280;1973;50.518;7.318;2023-04-28T09:32:21;100440.16;;;15.63;100.00
3917;BME280;1973;50.518;7.318;2023-04-28T09:34:53;100432.16;;;15.66;100.00
3917;BME280;1973;50.518;7.318;2023-04-28T09:37:25;100430.13;;;15.83;100.00
3917;BME280;1973;50.518;7.318;2023-04-28T09:40:09;100416.44;;;15.98;100.00
3917;BME280;1973;50.518;7.318;2023-04-28T09:42:40;100415.44;;;16.10;100.00
3917;BME280;1973;50.518;7.318;2023-04-28T09:45:09;100415.56;;;16.20;100.00
3917;BME280;1973;50.518;7.318;2023-04-28T09:47:38;100415.34;;;16.26;100.00
3917;BME280;1973;50.518;7.318;2023-04-28T09:50:10;100422.03;;;16.30;100.00
3917;BME280;1973;50.518;7.318;2023-04-28T09:52:41;100418.47;;;16.35;100.00
3917;BME280;1973;50.518;7.318;2023-04-28T09:55:08;100411.84;;;16.36;100.00
3917;BME280;1973;50.518;7.318;2023-04-28T09:57:37;100411.94;;;16.46;100.00
3917;BME280;1973;50.518;7.318;2023-04-28T10:00:05;100393.44;;;16.57;100.00
3917;BME280;1973;50.518;7.318;2023-04-28T10:02:34;100398.88;;;16.73;100.00
3917;BME280;1973;50.518;7.318;2023-04-28T10:05:05;100396.22;;;16.93;100.00
3917;BME280;1973;50.518;7.318;2023-04-28T10:07:37;100394.13;;;17.11;100.00
3917;BME280;1973;50.518;7.318;2023-04-28T10:10:06;100392.03;;;17.33;100.00
3917;BME280;1973;50.518;7.318;2023-04-28T10:12:33;100384.88;;;17.52;100.00
3917;BME280;1973;50.518;7.318;2023-04-28T10:15:00;100390.53;;;17.62;100.00
3917;BME280;1973;50.518;7.318;2023-04-28T10:17:27;100385.22;;;17.61;100.00
3917;BME280;1973;50.518;7.318;2023-04-28T10:19:55;100382.75;;;17.64;100.00
3917;BME280;1973;50.518;7.318;2023-04-28T10:25:25;100364.47;;;17.98;100.00
3917;BME280;1973;50.518;7.318;2023-04-28T10:27:52;100361.97;;;18.12;100.00
3917;BME280;1973;50.518;7.318;2023-04-28T10:30:21;100356.13;;;18.19;100.00
3917;BME280;1973;50.518;7.318;2023-04-28T10:35:45;100363.69;;;18.38;100.00
3917;BME280;1973;50.518;7.318;2023-04-28T10:38:15;100352.28;;;18.60;100.00
3917;BME280;1973;50.518;7.318;2023-04-28T10:40:49;100339.66;;;19.03;100.00
3917;BME280;1973;50.518;7.318;2023-04-28T10:45:59;100343.06;;;19.79;100.00
3917;BME280;1973;50.518;7.318;2023-04-28T10:58:45;100320.69;;;20.23;100.00
3917;BME280;1973;50.518;7.318;2023-04-28T11:06:40;100311.91;;;20.98;100.00
3917;BME280;1973;50.518;7.318;2023-04-28T11:14:29;100299.56;;;20.75;100.00
3917;BME280;1973;50.518;7.318;2023-04-28T11:17:01;100301.06;;;20.62;100.00
3917;BME280;1973;50.518;7.318;2023-04-28T11:19:33;100302.84;;;20.53;100.00
3917;BME280;1973;50.518;7.318;2023-04-28T11:22:14;100301.56;;;20.40;100.00
3917;BME280;1973;50.518;7.318;2023-04-28T11:24:41;100304.16;;;20.27;100.00
3917;BME280;1973;50.518;7.318;2023-04-28T11:27:24;100292.47;;;20.20;100.00
3917;BME280;1973;50.518;7.318;2023-04-28T11:29:51;100299.38;;;20.32;100.00
3917;BME280;1973;50.518;7.318;2023-04-28T11:32:33;100290.97;;;20.66;100.00
3917;BME280;1973;50.518;7.318;2023-04-28T11:35:00;100288.25;;;20.85;100.00
3917;BME280;1973;50.518;7.318;2023-04-28T11:37:27;100283.84;;;21.03;100.00
3917;BME280;1973;50.518;7.318;2023-04-28T11:39:53;100283.97;;;21.40;100.00
3917;BME280;1973;50.518;7.318;2023-04-28T11:42:20;100292.53;;;21.72;100.00
3917;BME280;1973;50.518;7.318;2023-04-28T11:44:50;100289.78;;;21.67;100.00
3917;BME280;1973;50.518;7.318;2023-04-28T11:47:30;100288.25;;;21.56;100.00
3917;BME280;1973;50.518;7.318;2023-04-28T11:49:58;100304.34;;;21.27;100.00
3917;BME280;1973;50.518;7.318;2023-04-28T11:52:24;100289.09;;;20.85;100.00
3917;BME280;1973;50.518;7.318;2023-04-28T11:54:56;100294.75;;;20.52;100.00
3917;BME280;1973;50.518;7.318;2023-04-28T11:57:25;100294.50;;;20.48;100.00
3917;BME280;1973;50.518;7.318;2023-04-28T11:59:52;100278.41;;;20.35;100.00
3917;BME280;1973;50.518;7.318;2023-04-28T12:02:26;100299.69;;;20.26;100.00
3917;BME280;1973;50.518;7.318;2023-04-28T12:05:04;100296.03;;;20.25;100.00
3917;BME280;1973;50.518;7.318;2023-04-28T12:07:40;100301.97;;;20.19;100.00
3917;BME280;1973;50.518;7.318;2023-04-28T12:10:14;100315.72;;;20.10;100.00
3917;BME280;1973;50.518;7.318;2023-04-28T12:12:42;100307.25;;;19.86;100.00
3917;BME280;1973;50.518;7.318;2023-04-28T12:15:18;100308.69;;;19.79;100.00
3917;BME280;1973;50.518;7.318;2023-04-28T12:17:47;100307.84;;;19.78;100.00
3917;BME280;1973;50.518;7.318;2023-04-28T12:20:33;100319.31;;;19.77;100.00
3917;BME280;1973;50.518;7.318;2023-04-28T12:23:00;100311.75;;;19.82;100.00
3917;BME280;1973;50.518;7.318;2023-04-28T12:25:28;100280.41;;;19.85;100.00
3917;BME280;1973;50.518;7.318;2023-04-28T12:28:12;100284.41;;;19.74;100.00
3917;BME280;1973;50.518;7.318;2023-04-28T12:30:39;100292.06;;;19.54;100.00
3917;BME280;1973;50.518;7.318;2023-04-28T12:33:25;100295.06;;;19.67;100.00
3917;BME280;1973;50.518;7.318;2023-04-28T12:35:53;100291.09;;;19.78;100.00
3917;BME280;1973;50.518;7.318;2023-04-28T12:38:21;100304.38;;;19.97;100.00
3917;BME280;1973;50.518;7.318;2023-04-28T12:40:48;100302.31;;;20.12;100.00
3917;BME280;1973;50.518;7.318;2023-04-28T12:43:14;100310.53;;;20.37;100.00
3917;BME280;1973;50.518;7.318;2023-04-28T12:45:40;100299.06;;;20.68;100.00
3917;BME280;1973;50.518;7.318;2023-04-28T12:48:07;100296.38;;;21.10;100.00
3917;BME280;1973;50.518;7.318;2023-04-28T12:50:34;100298.81;;;21.64;100.00
3917;BME280;1973;50.518;7.318;2023-04-28T12:53:00;100290.00;;;21.95;100.00
3917;BME280;1973;50.518;7.318;2023-04-28T12:55:28;100291.28;;;22.02;100.00
3917;BME280;1973;50.518;7.318;2023-04-28T12:57:54;100291.78;;;22.23;100.00
3917;BME280;1973;50.518;7.318;2023-04-28T13:00:21;100274.03;;;22.60;100.00
3917;BME280;1973;50.518;7.318;2023-04-28T13:02:49;100268.59;;;22.96;100.00
3917;BME280;1973;50.518;7.318;2023-04-28T13:05:16;100264.44;;;23.34;100.00
3917;BME280;1973;50.518;7.318;2023-04-28T13:07:44;100259.22;;;23.68;100.00
3917;BME280;1973;50.518;7.318;2023-04-28T13:10:11;100255.56;;;24.04;100.00
3917;BME280;1973;50.518;7.318;2023-04-28T13:12:39;100270.63;;;24.21;100.00
3917;BME280;1973;50.518;7.318;2023-04-28T13:15:06;100268.59;;;24.36;100.00
3917;BME280;1973;50.518;7.318;2023-04-28T13:17:33;100261.16;;;24.40;100.00
3917;BME280;1973;50.518;7.318;2023-04-28T13:20:00;100260.19;;;24.66;100.00
3917;BME280;1973;50.518;7.318;2023-04-28T13:22:29;100242.13;;;24.90;100.00
3917;BME280;1973;50.518;7.318;2023-04-28T13:24:55;100229.84;;;24.86;100.00
3917;BME280;1973;50.518;7.318;2023-04-28T13:27:22;100218.97;;;24.70;100.00
3917;BME280;1973;50.518;7.318;2023-04-28T13:29:49;100221.66;;;24.76;100.00
3917;BME280;1973;50.518;7.318;2023-04-28T13:32:16;100214.00;;;25.07;100.00
3917;BME280;1973;50.518;7.318;2023-04-28T13:34:42;100218.03;;;25.23;100.00
3917;BME280;1973;50.518;7.318;2023-04-28T13:37:10;100212.28;;;25.45;99.81